createdAt,value
2018-05-28T00:01:42.672Z,74.21
2018-05-28T00:04:10.184Z,74.47
2018-05-28T00:06:37.740Z,74.63
2018-05-28T00:09:06.186Z,74.40
2018-05-28T00:11:33.726Z,74.64
2018-05-28T00:14:01.275Z,75.21
2018-05-28T00:16:28.787Z,75.64
2018-05-28T00:18:56.317Z,75.48
2018-05-28T00:21:23.873Z,75.59
2018-05-28T00:23:51.409Z,75.35
2018-05-28T00:26:18.973Z,75.86
2018-05-28T00:28:46.468Z,76.20
2018-05-28T00:31:14.024Z,76.01
2018-05-28T00:33:41.557Z,76.27
2018-05-28T00:36:09.134Z,76.44
2018-05-28T00:38:36.784Z,76.71
2018-05-28T00:41:04.276Z,76.63
2018-05-28T00:43:31.798Z,76.64
2018-05-28T00:45:59.292Z,76.68
2018-05-28T00:48:26.802Z,76.67
2018-05-28T00:50:54.343Z,76.69
2018-05-28T00:53:21.865Z,76.55
2018-05-28T00:55:51.325Z,76.69
2018-05-28T00:58:18.863Z,76.91
2018-05-28T01:00:46.382Z,76.77
2018-05-28T01:03:13.880Z,76.89
2018-05-28T01:05:41.417Z,76.67
2018-05-28T01:08:08.923Z,76.37
2018-05-28T01:10:36.499Z,76.98
2018-05-28T01:13:04.039Z,76.88
2018-05-28T01:15:31.656Z,77.38
2018-05-28T01:17:59.254Z,77.40
2018-05-28T01:20:26.813Z,77.93
2018-05-28T01:22:54.345Z,78.21
2018-05-28T01:25:21.958Z,78.20
2018-05-28T01:27:49.482Z,78.64
2018-05-28T01:30:17.048Z,78.54
2018-05-28T01:32:44.591Z,78.09
2018-05-28T01:35:12.076Z,78.51
2018-05-28T01:37:39.604Z,78.05
2018-05-28T01:40:07.146Z,78.80
2018-05-28T01:42:34.691Z,78.80
2018-05-28T01:45:03.171Z,78.87
2018-05-28T01:47:30.716Z,78.68
2018-05-28T01:49:58.244Z,78.48
2018-05-28T01:52:25.768Z,78.56
2018-05-28T01:54:53.328Z,78.73
2018-05-28T01:57:20.894Z,78.83
2018-05-28T01:59:48.446Z,78.96
2018-05-28T02:02:15.923Z,79.47
2018-05-28T02:04:43.527Z,79.68
2018-05-28T02:07:11.065Z,79.84
2018-05-28T02:09:38.595Z,80.06
2018-05-28T02:12:06.077Z,79.91
2018-05-28T02:14:33.606Z,79.62
2018-05-28T02:17:01.160Z,80.02
2018-05-28T02:19:29.437Z,80.05
2018-05-28T02:21:57.018Z,80.59
2018-05-28T02:24:24.746Z,80.70
2018-05-28T02:26:52.395Z,80.93
2018-05-28T02:29:20.079Z,81.59
2018-05-28T02:31:47.635Z,81.42
2018-05-28T02:34:16.117Z,81.49
2018-05-28T02:36:44.599Z,81.66
2018-05-28T02:39:12.237Z,81.54
2018-05-28T02:41:41.029Z,81.63
2018-05-28T02:44:08.843Z,81.93
2018-05-28T02:46:36.457Z,81.72
2018-05-28T02:49:04.145Z,81.93
2018-05-28T02:51:31.701Z,82.24
2018-05-28T02:53:59.419Z,82.53
2018-05-28T02:56:27.036Z,82.40
2018-05-28T02:58:54.652Z,82.31
2018-05-28T03:01:22.176Z,82.31
2018-05-28T03:03:49.712Z,82.28
2018-05-28T03:06:17.429Z,82.08
2018-05-28T03:08:44.940Z,82.55
2018-05-28T03:11:12.452Z,82.98
2018-05-28T03:13:39.998Z,83.37
2018-05-28T03:16:07.648Z,83.15
2018-05-28T03:18:35.169Z,83.43
2018-05-28T03:21:02.766Z,83.38
2018-05-28T03:23:30.332Z,83.84
2018-05-28T03:25:57.883Z,84.29
2018-05-28T03:28:25.440Z,83.84
2018-05-28T03:30:52.936Z,83.81
2018-05-28T03:33:20.449Z,83.91
2018-05-28T03:35:48.016Z,83.96
2018-05-28T03:38:15.546Z,83.83
2018-05-28T03:40:43.044Z,83.93
2018-05-28T03:43:10.552Z,83.52
2018-05-28T03:45:38.088Z,83.29
2018-05-28T03:48:05.713Z,84.40
2018-05-28T03:50:33.270Z,83.93
2018-05-28T03:53:00.832Z,84.52
2018-05-28T03:55:28.499Z,84.25
2018-05-28T03:57:56.061Z,84.03
2018-05-28T04:03:43.336Z,84.81
2018-05-28T04:06:10.908Z,84.64
2018-05-28T04:08:38.509Z,84.42
2018-05-28T04:11:06.051Z,84.66
2018-05-28T04:13:33.611Z,84.72
2018-05-28T04:16:01.109Z,84.36
2018-05-28T04:18:28.735Z,84.18
2018-05-28T04:20:56.306Z,84.36
2018-05-28T04:23:23.908Z,84.03
2018-05-28T04:25:51.488Z,84.35
2018-05-28T04:28:19.025Z,84.09
2018-05-28T04:30:46.550Z,83.41
2018-05-28T04:33:14.084Z,83.47
2018-05-28T04:35:41.670Z,83.67
2018-05-28T04:38:09.216Z,84.00
2018-05-28T04:40:36.770Z,82.83
2018-05-28T04:43:04.317Z,82.43
2018-05-28T04:45:31.833Z,82.85
2018-05-28T04:47:59.416Z,81.80
2018-05-28T04:50:26.951Z,81.75
2018-05-28T04:52:54.453Z,81.28
2018-05-28T04:55:21.976Z,81.89
2018-05-28T04:57:49.560Z,82.10
2018-05-28T05:00:17.124Z,82.63
2018-05-28T05:02:44.670Z,83.12
2018-05-28T05:05:12.184Z,83.12
2018-05-28T05:07:39.701Z,83.09
2018-05-28T05:10:07.303Z,82.91
2018-05-28T05:12:34.838Z,82.96
2018-05-28T05:15:02.382Z,83.21
2018-05-28T05:17:29.923Z,83.49
2018-05-28T05:19:57.707Z,83.13
2018-05-28T05:22:25.249Z,83.60
2018-05-28T05:24:52.776Z,83.16
2018-05-28T05:27:20.309Z,82.61
2018-05-28T05:29:47.825Z,82.19
2018-05-28T05:32:15.328Z,82.78
2018-05-28T05:34:42.906Z,82.23
2018-05-28T05:37:10.433Z,82.06
2018-05-28T05:39:37.953Z,82.00
2018-05-28T05:42:05.551Z,82.99
2018-05-28T05:44:33.195Z,82.81
2018-05-28T05:47:00.683Z,83.24
2018-05-28T05:49:28.202Z,83.35
2018-05-28T05:51:55.766Z,84.09
2018-05-28T05:54:23.260Z,83.49
2018-05-28T05:56:50.887Z,83.14
2018-05-28T05:59:18.378Z,82.67
2018-05-28T06:01:46.010Z,82.81
2018-05-28T06:04:13.567Z,82.48
2018-05-28T06:06:41.179Z,82.80
2018-05-28T06:09:08.768Z,82.79
2018-05-28T06:11:36.363Z,82.07
2018-05-28T06:14:03.915Z,82.32
2018-05-28T06:16:31.466Z,82.11
2018-05-28T06:18:59.024Z,81.89
2018-05-28T06:21:26.558Z,81.60
2018-05-28T06:23:54.132Z,82.19
2018-05-28T06:26:21.632Z,81.63
2018-05-28T06:28:49.154Z,81.13
2018-05-28T06:31:16.701Z,80.62
2018-05-28T06:33:44.195Z,80.27
2018-05-28T06:36:11.729Z,80.72
2018-05-28T06:38:39.278Z,79.53
2018-05-28T06:41:06.842Z,79.54
2018-05-28T06:43:34.459Z,79.42
2018-05-28T06:46:01.987Z,79.23
2018-05-28T06:48:29.622Z,78.99
2018-05-28T06:50:57.174Z,78.84
2018-05-28T06:53:24.696Z,77.96
2018-05-28T06:55:52.292Z,78.39
2018-05-28T06:58:19.847Z,78.79
2018-05-28T07:00:47.351Z,78.13
2018-05-28T07:03:14.887Z,77.81
2018-05-28T07:05:42.437Z,78.32
2018-05-28T07:08:10.014Z,76.95
2018-05-28T07:10:37.540Z,77.33
2018-05-28T07:13:05.025Z,77.74
2018-05-28T07:15:32.636Z,75.95
2018-05-28T07:18:00.254Z,75.57
2018-05-28T07:20:27.760Z,75.69
2018-05-28T07:22:55.273Z,75.04
2018-05-28T07:25:22.828Z,73.86
2018-05-28T07:27:50.391Z,74.74
2018-05-28T07:30:18.770Z,73.64
2018-05-28T07:32:46.355Z,73.80
2018-05-28T07:35:13.844Z,72.63
2018-05-28T07:37:41.379Z,72.38
2018-05-28T07:40:09.003Z,71.36
2018-05-28T07:42:36.595Z,71.23
2018-05-28T07:45:04.188Z,71.01
2018-05-28T07:47:31.730Z,70.51
2018-05-28T07:49:59.319Z,70.17
2018-05-28T07:52:26.893Z,71.14
2018-05-28T07:54:54.483Z,70.23
2018-05-28T07:57:21.968Z,70.53
2018-05-28T07:59:49.463Z,69.44
2018-05-28T08:02:16.967Z,69.52
2018-05-28T08:04:44.461Z,69.38
2018-05-28T08:07:11.982Z,69.52
2018-05-28T08:09:39.483Z,70.38
2018-05-28T08:12:07.019Z,68.87
2018-05-28T08:14:34.553Z,68.76
2018-05-28T08:17:02.023Z,68.55
2018-05-28T08:19:29.504Z,69.52
2018-05-28T08:21:57.037Z,70.45
2018-05-28T08:24:24.702Z,70.44
2018-05-28T08:26:52.209Z,69.31
2018-05-28T08:29:19.712Z,68.03
2018-05-28T08:31:47.188Z,67.93
2018-05-28T08:34:14.678Z,68.77
2018-05-28T08:36:42.163Z,68.51
2018-05-28T08:39:09.663Z,67.58
2018-05-28T08:41:37.181Z,67.67
2018-05-28T08:44:04.682Z,66.95
2018-05-28T08:46:32.186Z,66.40
2018-05-28T08:48:59.688Z,66.35
2018-05-28T08:51:27.172Z,67.42
2018-05-28T08:53:54.666Z,67.00
2018-05-28T08:56:22.918Z,66.69
2018-05-28T08:58:50.465Z,67.14
2018-05-28T09:01:17.966Z,66.15
2018-05-28T09:03:45.511Z,66.89
2018-05-28T09:06:13.012Z,66.32
2018-05-28T09:08:40.525Z,65.65
2018-05-28T09:11:08.025Z,65.26
2018-05-28T09:13:35.524Z,66.28
2018-05-28T09:16:03.064Z,64.74
2018-05-28T09:18:30.633Z,64.57
2018-05-28T09:20:58.240Z,63.53
2018-05-28T09:23:25.726Z,63.98
2018-05-28T09:25:53.208Z,62.60
2018-05-28T09:28:20.700Z,62.22
2018-05-28T09:30:48.215Z,61.59
2018-05-28T09:33:15.726Z,62.12
2018-05-28T09:35:43.204Z,62.36
2018-05-28T09:38:10.698Z,62.79
2018-05-28T09:40:38.206Z,62.86
2018-05-28T09:43:05.714Z,62.53
2018-05-28T09:45:33.218Z,61.43
2018-05-28T09:48:00.707Z,62.54
2018-05-28T09:50:28.242Z,61.91
2018-05-28T09:52:55.753Z,62.59
2018-05-28T09:55:23.272Z,61.50
2018-05-28T09:57:50.774Z,60.45
2018-05-28T10:00:18.333Z,59.85
2018-05-28T10:02:45.838Z,60.40
2018-05-28T10:05:13.414Z,59.00
2018-05-28T10:07:40.908Z,58.95
2018-05-28T10:10:08.459Z,58.64
2018-05-28T10:12:35.956Z,57.80
2018-05-28T10:15:03.568Z,58.28
2018-05-28T10:17:31.084Z,58.29
2018-05-28T10:19:58.597Z,59.05
2018-05-28T10:22:26.218Z,58.86
2018-05-28T10:24:53.821Z,59.57
2018-05-28T10:27:21.323Z,58.47
2018-05-28T10:29:48.883Z,57.43
2018-05-28T10:32:16.438Z,56.13
2018-05-28T10:34:43.971Z,57.01
2018-05-28T10:37:11.507Z,56.93
2018-05-28T10:39:39.048Z,55.15
2018-05-28T10:42:06.576Z,54.82
2018-05-28T10:44:34.076Z,55.50
2018-05-28T10:47:01.584Z,55.22
2018-05-28T10:49:29.106Z,53.60
2018-05-28T10:51:56.607Z,52.43
2018-05-28T10:54:24.158Z,51.60
2018-05-28T10:56:51.673Z,51.52
2018-05-28T10:59:19.212Z,50.71
2018-05-28T11:01:46.715Z,50.56
2018-05-28T11:04:14.299Z,50.21
2018-05-28T11:06:41.816Z,46.89
2018-05-28T11:09:09.354Z,43.50
2018-05-28T11:11:36.864Z,42.38
2018-05-28T11:14:04.374Z,42.11
2018-05-28T11:16:31.915Z,39.25
2018-05-28T11:18:59.425Z,38.64
2018-05-28T11:21:27.011Z,39.67
2018-05-28T11:23:54.507Z,38.92
2018-05-28T11:26:22.110Z,39.42
2018-05-28T11:28:49.679Z,40.29
2018-05-28T11:31:17.168Z,37.75
2018-05-28T11:33:44.760Z,39.13
2018-05-28T11:36:12.256Z,39.42
2018-05-28T11:38:39.750Z,39.45
2018-05-28T11:41:07.271Z,40.49
2018-05-28T11:43:34.765Z,39.64
2018-05-28T11:46:02.300Z,39.63
2018-05-28T11:48:29.855Z,41.01
2018-05-28T11:50:57.434Z,40.99
2018-05-28T11:53:24.998Z,40.29
2018-05-28T11:55:52.527Z,40.76
2018-05-28T11:58:20.117Z,40.96
2018-05-28T12:00:47.830Z,39.85
2018-05-28T12:03:15.390Z,40.62
2018-05-28T12:05:42.879Z,38.51
2018-05-28T12:08:10.376Z,36.50
2018-05-28T12:10:37.967Z,36.63
2018-05-28T12:13:05.484Z,37.90
2018-05-28T12:15:32.980Z,38.44
2018-05-28T12:18:00.552Z,37.30
2018-05-28T12:20:28.098Z,34.88
2018-05-28T12:22:55.627Z,35.37
2018-05-28T12:25:23.175Z,36.44
2018-05-28T12:27:50.672Z,37.58
2018-05-28T12:30:18.255Z,38.08
2018-05-28T12:32:45.816Z,38.05
2018-05-28T12:35:13.337Z,38.96
2018-05-28T12:37:40.844Z,39.24
2018-05-28T12:40:08.365Z,39.17
2018-05-28T12:42:35.878Z,39.54
2018-05-28T12:45:03.407Z,39.36
2018-05-28T12:47:30.957Z,40.08
2018-05-28T12:49:58.485Z,40.17
2018-05-28T12:52:26.030Z,40.35
2018-05-28T12:54:53.574Z,39.91
2018-05-28T12:57:21.336Z,40.28
2018-05-28T12:59:48.904Z,40.98
2018-05-28T13:02:16.515Z,40.98
2018-05-28T13:04:44.320Z,41.51
2018-05-28T13:07:12.101Z,41.71
2018-05-28T13:09:39.952Z,41.51
2018-05-28T13:12:07.755Z,41.03
2018-05-28T13:14:35.540Z,41.20
2018-05-28T13:17:03.323Z,40.43
2018-05-28T13:19:31.218Z,40.46
2018-05-28T13:21:58.980Z,40.38
2018-05-28T13:24:26.825Z,41.79
2018-05-28T13:26:54.579Z,41.75
2018-05-28T13:29:22.342Z,42.65
2018-05-28T13:31:50.115Z,41.08
2018-05-28T13:34:17.667Z,42.07
2018-05-28T13:36:45.178Z,42.42
2018-05-28T13:39:12.702Z,42.42
2018-05-28T13:41:40.241Z,40.10
2018-05-28T13:44:07.804Z,40.50
2018-05-28T13:46:35.310Z,40.92
2018-05-28T13:49:02.832Z,40.58
2018-05-28T13:51:30.353Z,41.07
2018-05-28T13:53:57.885Z,42.29
2018-05-28T13:56:25.500Z,40.72
2018-05-28T13:58:53.042Z,40.61
2018-05-28T14:01:20.638Z,40.44
2018-05-28T14:03:48.213Z,40.85
2018-05-28T14:06:15.718Z,41.79
2018-05-28T14:08:43.251Z,42.10
2018-05-28T14:11:10.725Z,42.30
2018-05-28T14:13:38.250Z,41.66
2018-05-28T14:16:05.833Z,40.59
2018-05-28T14:18:33.333Z,40.96
2018-05-28T14:21:00.930Z,40.15
2018-05-28T14:23:28.504Z,40.07
2018-05-28T14:25:56.089Z,40.17
2018-05-28T14:28:23.651Z,40.20
2018-05-28T14:30:51.231Z,39.76
2018-05-28T14:33:18.784Z,39.55
2018-05-28T14:35:46.382Z,40.19
2018-05-28T14:38:13.912Z,40.16
2018-05-28T14:40:41.530Z,40.03
2018-05-28T14:43:09.225Z,40.15
2018-05-28T14:45:36.787Z,38.35
2018-05-28T14:48:04.347Z,38.14
2018-05-28T14:50:31.963Z,38.37
2018-05-28T14:52:59.460Z,40.05
2018-05-28T14:55:27.101Z,39.47
2018-05-28T14:57:54.681Z,39.96
2018-05-28T15:00:22.211Z,40.45
2018-05-28T15:02:49.799Z,39.76
2018-05-28T15:05:17.349Z,40.48
2018-05-28T15:07:44.919Z,40.32
2018-05-28T15:10:12.460Z,39.84
2018-05-28T15:12:39.991Z,40.40
2018-05-28T15:15:07.507Z,40.34
2018-05-28T15:17:35.070Z,40.05
2018-05-28T15:20:02.678Z,40.87
2018-05-28T15:22:30.209Z,40.62
2018-05-28T15:24:57.732Z,40.99
2018-05-28T15:27:25.299Z,41.59
2018-05-28T15:29:52.891Z,41.32
2018-05-28T15:32:20.363Z,42.22
2018-05-28T15:34:47.872Z,41.46
2018-05-28T15:37:15.402Z,40.85
2018-05-28T15:39:42.985Z,40.73
2018-05-28T15:42:10.527Z,40.68
2018-05-28T15:44:38.087Z,40.71
2018-05-28T15:47:05.638Z,40.93
2018-05-28T15:49:33.238Z,40.79
2018-05-28T15:52:00.762Z,40.31
2018-05-28T15:54:28.292Z,41.58
2018-05-28T15:56:55.830Z,41.53
2018-05-28T15:59:23.304Z,41.72
2018-05-28T16:01:50.792Z,41.82
2018-05-28T16:04:18.341Z,41.29
2018-05-28T16:06:45.815Z,40.86
2018-05-28T16:09:13.365Z,40.43
2018-05-28T16:11:40.899Z,40.64
2018-05-28T16:14:08.484Z,40.50
2018-05-28T16:16:36.010Z,40.66
2018-05-28T16:19:03.574Z,40.16
2018-05-28T16:21:31.135Z,40.09
2018-05-28T16:23:58.791Z,39.92
2018-05-28T16:26:26.662Z,39.40
2018-05-28T16:28:54.627Z,39.30
2018-05-28T16:31:22.205Z,39.92
2018-05-28T16:33:49.864Z,39.34
2018-05-28T16:36:17.464Z,39.68
2018-05-28T16:38:45.126Z,40.05
2018-05-28T16:41:12.656Z,40.54
2018-05-28T16:43:53.148Z,40.44
2018-05-28T16:46:21.483Z,40.79
2018-05-28T16:48:49.057Z,41.06
2018-05-28T16:51:16.914Z,41.22
2018-05-28T16:53:44.553Z,41.25
2018-05-28T16:56:12.510Z,40.63
2018-05-28T16:58:40.396Z,41.21
2018-05-28T17:01:08.055Z,41.34
2018-05-28T17:03:35.734Z,41.43
2018-05-28T17:06:03.405Z,41.57
2018-05-28T17:08:31.084Z,42.11
2018-05-28T17:10:58.741Z,42.36
2018-05-28T17:13:26.790Z,42.04
2018-05-28T17:15:55.165Z,41.81
2018-05-28T17:18:22.780Z,42.14
2018-05-28T17:20:50.444Z,42.62
2018-05-28T17:23:17.970Z,42.72
2018-05-28T17:25:45.578Z,42.41
2018-05-28T17:28:13.449Z,43.12
2018-05-28T17:30:41.705Z,43.38
2018-05-28T17:33:09.352Z,42.70
2018-05-28T17:35:37.272Z,42.64
2018-05-28T17:38:04.938Z,43.10
2018-05-28T17:40:34.333Z,43.42
2018-05-28T17:43:02.004Z,42.97
2018-05-28T17:45:29.771Z,43.31
2018-05-28T17:50:36.410Z,43.08
2018-05-28T17:53:04.161Z,43.02
2018-05-28T17:55:33.218Z,44.07
2018-05-28T17:58:00.888Z,42.82
2018-05-28T18:00:28.512Z,42.99
2018-05-28T18:02:56.006Z,42.99
2018-05-28T18:05:23.542Z,43.30
2018-05-28T18:07:51.078Z,43.08
2018-05-28T18:10:18.638Z,43.17
2018-05-28T18:12:46.163Z,43.62
2018-05-28T18:15:13.718Z,43.78
2018-05-28T18:17:41.836Z,43.91
2018-05-28T18:20:09.310Z,43.83
2018-05-28T18:22:36.834Z,43.89
2018-05-28T18:25:05.299Z,44.37
2018-05-28T18:27:32.915Z,44.64
2018-05-28T18:30:00.527Z,44.46
2018-05-28T18:32:28.201Z,44.43
2018-05-28T18:34:55.874Z,44.92
2018-05-28T18:37:25.715Z,44.87
2018-05-28T18:39:53.265Z,44.93
2018-05-28T18:42:20.815Z,45.05
2018-05-28T18:44:48.348Z,45.70
2018-05-28T18:47:15.852Z,45.66
2018-05-28T18:49:43.379Z,45.81
2018-05-28T18:52:10.978Z,45.87
2018-05-28T18:54:39.576Z,45.98
2018-05-28T18:57:07.108Z,46.14
2018-05-28T18:59:35.049Z,46.39
2018-05-28T19:02:02.761Z,46.67
2018-05-28T19:04:30.279Z,46.92
2018-05-28T19:06:57.823Z,47.13
2018-05-28T19:09:27.139Z,47.36
2018-05-28T19:11:58.242Z,47.64
2018-05-28T19:14:25.808Z,48.07
2018-05-28T19:16:59.157Z,48.21
2018-05-28T19:19:28.544Z,48.66
2018-05-28T19:21:56.076Z,49.04
2018-05-28T19:24:23.727Z,49.41
2018-05-28T19:26:51.293Z,49.56
2018-05-28T19:29:20.518Z,50.21
2018-05-28T19:31:48.380Z,50.57
2018-05-28T19:34:16.027Z,51.23
2018-05-28T19:36:43.700Z,50.88
2018-05-28T19:39:11.293Z,51.25
2018-05-28T19:41:38.950Z,51.59
2018-05-28T19:44:06.491Z,53.43
2018-05-28T19:46:34.226Z,52.54
2018-05-28T19:49:01.819Z,53.06
2018-05-28T19:51:29.359Z,52.89
2018-05-28T19:53:56.908Z,53.93
2018-05-28T19:56:24.439Z,53.48
2018-05-28T19:58:52.120Z,53.84
2018-05-28T20:01:19.746Z,53.85
2018-05-28T20:03:47.528Z,53.81
2018-05-28T20:06:15.039Z,53.68
2018-05-28T20:08:42.548Z,54.02
2018-05-28T20:11:10.046Z,53.57
2018-05-28T20:13:37.544Z,53.88
2018-05-28T20:16:05.052Z,53.46
2018-05-28T20:18:32.627Z,54.36
2018-05-28T20:21:00.577Z,54.27
2018-05-28T20:23:28.075Z,54.24
2018-05-28T20:25:56.442Z,54.30
2018-05-28T20:28:25.824Z,55.03
2018-05-28T20:30:53.359Z,57.49
2018-05-28T20:33:20.912Z,55.02
2018-05-28T20:35:54.031Z,54.42
2018-05-28T20:38:21.629Z,53.91
2018-05-28T20:40:49.188Z,54.99
2018-05-28T20:43:16.992Z,54.64
2018-05-28T20:45:44.530Z,54.30
2018-05-28T20:48:12.067Z,54.28
2018-05-28T20:50:40.075Z,54.22
2018-05-28T20:53:07.622Z,54.23
2018-05-28T20:55:35.171Z,54.46
2018-05-28T20:58:02.670Z,54.77
2018-05-28T21:00:30.234Z,54.54
2018-05-28T21:02:57.783Z,54.69
2018-05-28T21:05:25.289Z,54.55
2018-05-28T21:07:52.843Z,54.43
2018-05-28T21:10:20.751Z,54.69
2018-05-28T21:12:48.302Z,54.42
2018-05-28T21:15:15.833Z,54.68
2018-05-28T21:17:43.371Z,54.47
2018-05-28T21:20:10.952Z,54.38
2018-05-28T21:22:38.468Z,54.49
2018-05-28T21:25:06.069Z,54.21
2018-05-28T21:27:33.561Z,54.46
2018-05-28T21:30:01.126Z,54.51
2018-05-28T21:32:28.656Z,54.65
2018-05-28T21:34:56.179Z,54.64
2018-05-28T21:37:23.725Z,54.86
2018-05-28T21:39:51.301Z,54.89
2018-05-28T21:42:18.794Z,55.09
2018-05-28T21:44:46.354Z,55.04
2018-05-28T21:47:13.895Z,55.52
2018-05-28T21:49:41.443Z,55.32
2018-05-28T21:52:09.008Z,55.70
2018-05-28T21:54:36.561Z,55.71
2018-05-28T21:57:04.108Z,56.15
2018-05-28T21:59:31.633Z,56.49
2018-05-28T22:01:59.160Z,56.39
2018-05-28T22:04:26.658Z,56.50
2018-05-28T22:06:54.210Z,56.58
2018-05-28T22:09:21.717Z,56.63
2018-05-28T22:11:49.259Z,56.86
2018-05-28T22:14:16.780Z,56.76
2018-05-28T22:16:44.292Z,56.90
2018-05-28T22:19:11.800Z,56.75
2018-05-28T22:21:39.355Z,57.14
2018-05-28T22:24:06.910Z,57.09
2018-05-28T22:26:34.425Z,57.14
2018-05-28T22:29:01.933Z,57.31
2018-05-28T22:31:29.426Z,57.25
2018-05-28T22:33:57.017Z,57.75
2018-05-28T22:36:24.553Z,57.66
2018-05-28T22:38:52.047Z,57.93
2018-05-28T22:41:19.625Z,57.83
2018-05-28T22:43:47.136Z,58.02
2018-05-28T22:46:16.964Z,58.11
2018-05-28T22:48:45.143Z,58.24
2018-05-28T22:51:12.678Z,59.15
2018-05-28T22:53:40.176Z,58.85
2018-05-28T22:56:07.740Z,59.49
2018-05-28T22:58:35.242Z,59.19
2018-05-28T23:01:02.794Z,59.79
2018-05-28T23:03:30.866Z,59.72
2018-05-28T23:05:58.362Z,60.47
2018-05-28T23:08:25.946Z,60.60
2018-05-28T23:10:53.583Z,60.65
2018-05-28T23:13:21.107Z,61.04
2018-05-28T23:15:48.646Z,60.73
2018-05-28T23:18:16.163Z,61.24
2018-05-28T23:20:43.676Z,60.97
2018-05-28T23:23:11.211Z,61.17
2018-05-28T23:25:38.730Z,61.08
2018-05-28T23:28:06.332Z,61.54
2018-05-28T23:30:33.895Z,61.84
2018-05-28T23:33:01.413Z,62.24
2018-05-28T23:35:28.936Z,62.60
2018-05-28T23:37:56.471Z,63.08
2018-05-28T23:40:24.000Z,63.00
2018-05-28T23:42:51.516Z,62.75
2018-05-28T23:45:19.060Z,62.78
2018-05-28T23:47:46.549Z,63.31
2018-05-28T23:50:14.076Z,63.40
2018-05-28T23:52:41.609Z,64.01
2018-05-28T23:55:09.142Z,64.37
2018-05-28T23:57:36.656Z,64.48
